createdAt,value
2023-05-12T00:00:30.268Z,18.52
2023-05-12T00:02:57.742Z,18.80
2023-05-12T00:05:25.410Z,18.40
2023-05-12T00:07:52.804Z,18.52
2023-05-12T00:10:21.083Z,18.77
2023-05-12T00:12:49.186Z,18.58
2023-05-12T00:15:19.625Z,18.80
2023-05-12T00:17:47.096Z,18.73
2023-05-12T00:20:14.519Z,18.32
2023-05-12T00:22:42.565Z,18.82
2023-05-12T00:25:10.395Z,18.28
2023-05-12T00:27:37.781Z,18.27
2023-05-12T00:30:06.907Z,18.84
2023-05-12T00:32:35.619Z,18.61
2023-05-12T00:35:03.041Z,18.91
2023-05-12T00:37:30.539Z,18.48
2023-05-12T00:39:57.931Z,18.87
2023-05-12T00:42:25.306Z,18.36
2023-05-12T00:44:52.703Z,18.79
2023-05-12T00:47:21.674Z,18.98
2023-05-12T00:49:50.529Z,18.04
2023-05-12T00:52:17.952Z,17.79
2023-05-12T00:54:45.476Z,17.55
2023-05-12T00:57:13.669Z,17.90
2023-05-12T00:59:41.145Z,17.75
2023-05-12T01:02:08.750Z,18.06
2023-05-12T01:04:37.101Z,18.42
2023-05-12T01:07:10.937Z,18.64
2023-05-12T01:09:38.317Z,18.50
2023-05-12T01:12:06.313Z,18.72
2023-05-12T01:14:34.168Z,19.00
2023-05-12T01:17:05.152Z,18.76
2023-05-12T01:19:41.618Z,18.38
2023-05-12T01:22:11.024Z,18.10
2023-05-12T01:24:46.109Z,18.39
2023-05-12T01:27:16.415Z,17.25
2023-05-12T01:29:45.799Z,17.73
2023-05-12T01:32:13.776Z,17.39
2023-05-12T01:34:42.357Z,17.59
2023-05-12T01:37:09.858Z,17.95
2023-05-12T01:39:37.455Z,17.41
2023-05-12T01:42:05.619Z,17.83
2023-05-12T01:44:34.600Z,18.18
2023-05-12T01:47:02.503Z,17.71
2023-05-12T01:49:29.901Z,17.77
2023-05-12T01:51:57.383Z,17.42
2023-05-12T01:54:24.791Z,17.40
2023-05-12T01:56:52.195Z,17.93
2023-05-12T01:59:19.697Z,16.93
2023-05-12T02:01:48.476Z,17.33
2023-05-12T02:04:16.294Z,17.47
2023-05-12T02:06:43.816Z,17.69
2023-05-12T02:09:11.244Z,17.36
2023-05-12T02:11:38.686Z,17.60
2023-05-12T02:14:06.630Z,17.50
2023-05-12T02:16:34.109Z,17.89
2023-05-12T02:19:02.898Z,17.72
2023-05-12T02:21:31.309Z,17.42
2023-05-12T02:23:58.732Z,17.37
2023-05-12T02:26:26.170Z,17.14
2023-05-12T02:28:53.568Z,17.16
2023-05-12T02:31:20.996Z,17.61
2023-05-12T02:33:48.468Z,17.30
2023-05-12T02:36:17.197Z,16.78
2023-05-12T02:38:44.570Z,16.98
2023-05-12T02:41:11.967Z,17.22
2023-05-12T02:43:39.757Z,16.85
2023-05-12T02:46:07.204Z,16.94
2023-05-12T02:48:34.633Z,16.62
2023-05-12T02:51:02.073Z,16.18
2023-05-12T02:53:30.864Z,16.38
2023-05-12T02:55:58.300Z,16.19
2023-05-12T02:58:25.872Z,16.75
2023-05-12T03:01:03.085Z,15.77
2023-05-12T03:03:37.289Z,15.73
2023-05-12T03:06:06.083Z,16.15
2023-05-12T03:08:34.910Z,16.01
2023-05-12T03:11:02.401Z,16.14
2023-05-12T03:13:29.830Z,15.99
2023-05-12T03:16:01.149Z,16.30
2023-05-12T03:18:28.977Z,15.93
2023-05-12T03:20:56.539Z,15.80
2023-05-12T03:23:23.957Z,16.18
2023-05-12T03:25:52.765Z,16.44
2023-05-12T03:28:20.178Z,16.13
2023-05-12T03:30:47.573Z,16.48
2023-05-12T03:33:15.011Z,16.21
2023-05-12T03:35:42.511Z,16.31
2023-05-12T03:38:09.894Z,16.40
2023-05-12T03:40:37.317Z,16.43
2023-05-12T03:43:06.054Z,16.34
2023-05-12T03:45:33.448Z,16.15
2023-05-12T03:48:01.372Z,16.20
2023-05-12T03:50:28.821Z,16.39
2023-05-12T03:52:56.804Z,15.74
2023-05-12T03:55:24.265Z,16.47
2023-05-12T03:57:51.748Z,16.51
2023-05-12T04:00:21.471Z,16.01
2023-05-12T04:02:49.134Z,16.73
2023-05-12T04:05:16.847Z,16.46
2023-05-12T04:07:44.259Z,16.74
2023-05-12T04:10:11.747Z,16.64
2023-05-12T04:12:39.285Z,16.16
2023-05-12T04:15:07.981Z,16.83
2023-05-12T04:17:36.907Z,16.77
2023-05-12T04:20:04.734Z,16.63
2023-05-12T04:22:32.167Z,16.83
2023-05-12T04:24:59.582Z,16.77
2023-05-12T04:27:26.986Z,16.74
2023-05-12T04:29:54.636Z,17.00
2023-05-12T04:32:22.102Z,16.50
2023-05-12T04:34:51.647Z,16.92
2023-05-12T04:37:19.052Z,16.96
2023-05-12T04:39:46.436Z,16.98
2023-05-12T04:42:13.968Z,16.38
2023-05-12T04:44:41.406Z,16.29
2023-05-12T04:47:08.803Z,16.88
2023-05-12T04:49:36.205Z,16.32
2023-05-12T04:52:05.656Z,16.89
2023-05-12T04:54:33.157Z,16.45
2023-05-12T04:57:00.573Z,16.52
2023-05-12T04:59:28.326Z,16.76
2023-05-12T05:01:56.014Z,15.94
2023-05-12T05:04:23.867Z,16.24
2023-05-12T05:06:51.281Z,16.61
2023-05-12T05:09:20.023Z,15.87
2023-05-12T05:11:47.850Z,16.82
2023-05-12T05:14:15.695Z,16.94
2023-05-12T05:16:43.415Z,16.89
2023-05-12T05:19:20.080Z,17.24
2023-05-12T05:21:53.560Z,17.63
2023-05-12T05:24:22.303Z,17.55
2023-05-12T05:26:49.884Z,17.85
2023-05-12T05:29:17.312Z,17.84
2023-05-12T05:31:44.905Z,17.58
2023-05-12T05:34:12.477Z,18.00
2023-05-12T05:36:40.299Z,19.89
2023-05-12T05:39:10.208Z,20.40
2023-05-12T05:41:39.086Z,19.00
2023-05-12T05:44:06.593Z,18.09
2023-05-12T05:46:34.040Z,19.57
2023-05-12T05:49:01.543Z,20.41
2023-05-12T05:51:28.941Z,19.65
2023-05-12T05:53:56.356Z,19.56
2023-05-12T05:56:24.137Z,19.58
2023-05-12T05:58:53.341Z,23.67
2023-05-12T06:01:20.822Z,25.99
2023-05-12T06:03:48.285Z,23.93
2023-05-12T06:06:15.961Z,24.01
2023-05-12T06:08:43.343Z,23.98
2023-05-12T06:11:10.768Z,23.81
2023-05-12T06:13:38.329Z,22.28
2023-05-12T06:16:07.434Z,20.14
2023-05-12T06:18:37.852Z,19.38
2023-05-12T06:21:06.188Z,18.91
2023-05-12T06:23:33.642Z,19.65
2023-05-12T06:26:01.065Z,18.53
2023-05-12T06:28:28.489Z,19.09
2023-05-12T06:30:55.949Z,19.17
2023-05-12T06:33:24.725Z,19.30
2023-05-12T06:35:52.181Z,19.73
2023-05-12T06:38:19.627Z,19.45
2023-05-12T06:40:47.023Z,20.42
2023-05-12T06:43:14.852Z,19.97
2023-05-12T06:45:42.380Z,19.23
2023-05-12T06:48:10.282Z,18.86
2023-05-12T06:50:39.173Z,19.06
2023-05-12T06:53:08.049Z,19.16
2023-05-12T06:55:35.558Z,19.97
2023-05-12T06:58:03.266Z,19.09
2023-05-12T07:00:30.674Z,19.16
2023-05-12T07:02:58.388Z,19.51
2023-05-12T07:05:25.931Z,19.34
2023-05-12T07:07:54.678Z,19.02
2023-05-12T07:10:22.098Z,19.14
2023-05-12T07:12:49.536Z,19.79
2023-05-12T07:15:16.921Z,18.91
2023-05-12T07:17:44.381Z,19.96
2023-05-12T07:20:12.799Z,19.75
2023-05-12T07:22:40.276Z,20.12
2023-05-12T07:25:09.757Z,19.62
2023-05-12T07:27:37.208Z,19.87
2023-05-12T07:30:05.691Z,19.41
2023-05-12T07:32:33.300Z,19.57
2023-05-12T07:35:00.835Z,20.44
2023-05-12T07:37:28.648Z,20.43
2023-05-12T07:39:56.145Z,19.79
2023-05-12T07:42:24.896Z,20.95
2023-05-12T07:44:52.279Z,20.40
2023-05-12T07:47:19.648Z,20.43
2023-05-12T07:49:47.092Z,20.51
2023-05-12T07:52:14.822Z,20.80
2023-05-12T07:54:42.235Z,20.37
2023-05-12T07:57:09.681Z,20.52
2023-05-12T07:59:38.423Z,20.62
2023-05-12T08:02:06.471Z,20.13
2023-05-12T08:04:33.981Z,20.39
2023-05-12T08:07:01.606Z,20.09
2023-05-12T08:09:29.138Z,20.15
2023-05-12T08:11:56.555Z,20.15
2023-05-12T08:14:25.628Z,20.81
2023-05-12T08:16:54.429Z,20.66
2023-05-12T08:19:21.913Z,21.09
2023-05-12T08:21:49.592Z,21.55
2023-05-12T08:24:17.126Z,21.36
2023-05-12T08:26:44.553Z,21.23
2023-05-12T08:29:12.675Z,21.15
2023-05-12T08:31:40.427Z,22.34
2023-05-12T08:34:11.149Z,21.37
2023-05-12T08:36:39.106Z,21.05
2023-05-12T08:39:07.768Z,21.39
2023-05-12T08:41:43.898Z,21.86
2023-05-12T08:44:12.177Z,21.51
2023-05-12T08:46:40.036Z,21.98
2023-05-12T08:49:15.753Z,21.77
2023-05-12T08:51:46.667Z,21.72
2023-05-12T08:54:19.609Z,21.24
2023-05-12T08:59:18.569Z,21.50
2023-05-12T09:01:47.497Z,21.62
2023-05-12T09:04:16.457Z,21.65
2023-05-12T09:06:44.662Z,21.38
2023-05-12T09:09:15.564Z,21.41
2023-05-12T09:11:44.071Z,21.50
2023-05-12T09:14:18.909Z,21.86
2023-05-12T09:16:49.759Z,21.77
2023-05-12T09:19:21.928Z,22.01
2023-05-12T09:21:49.594Z,21.70
2023-05-12T09:24:17.051Z,22.06
2023-05-12T09:26:49.301Z,21.84
2023-05-12T09:29:27.795Z,21.45
2023-05-12T09:31:59.539Z,21.41
2023-05-12T09:34:31.381Z,21.12
2023-05-12T09:37:01.037Z,20.72
2023-05-12T09:39:29.371Z,20.89
2023-05-12T09:41:57.005Z,20.86
2023-05-12T09:44:25.742Z,21.51
2023-05-12T09:46:53.557Z,21.52
2023-05-12T09:49:21.603Z,21.15
2023-05-12T09:51:54.782Z,21.24
2023-05-12T09:54:26.408Z,21.29
2023-05-12T09:56:58.195Z,21.46
2023-05-12T09:59:28.279Z,21.80
2023-05-12T10:02:00.007Z,21.88
2023-05-12T10:04:29.680Z,21.60
2023-05-12T10:06:59.989Z,22.07
2023-05-12T10:09:33.987Z,21.36
2023-05-12T10:12:04.357Z,21.46
2023-05-12T10:14:32.360Z,22.50
2023-05-12T10:17:00.903Z,22.45
2023-05-12T10:19:31.001Z,22.24
2023-05-12T10:21:59.778Z,21.95
2023-05-12T10:24:28.132Z,22.43
2023-05-12T10:26:56.657Z,21.96
2023-05-12T10:29:29.647Z,22.08
2023-05-12T10:31:57.650Z,22.33
2023-05-12T10:34:31.028Z,22.43
2023-05-12T10:36:59.853Z,21.93
2023-05-12T10:39:30.808Z,21.68
2023-05-12T10:42:07.091Z,21.94
2023-05-12T10:44:35.221Z,22.03
2023-05-12T10:47:03.146Z,22.14
2023-05-12T10:49:34.779Z,21.19
2023-05-12T10:52:03.585Z,21.55
2023-05-12T10:54:33.938Z,21.89
2023-05-12T10:57:02.144Z,21.68
2023-05-12T10:59:30.057Z,22.17
2023-05-12T11:02:01.290Z,22.51
2023-05-12T11:04:42.247Z,22.75
2023-05-12T11:07:14.091Z,21.88
2023-05-12T11:09:56.861Z,21.80
2023-05-12T11:12:27.379Z,21.78
2023-05-12T11:14:55.065Z,22.16
2023-05-12T11:17:22.621Z,22.51
2023-05-12T11:19:51.175Z,22.72
2023-05-12T11:22:21.618Z,22.43
2023-05-12T11:24:50.783Z,22.37
2023-05-12T11:27:22.592Z,23.21
2023-05-12T11:29:57.927Z,22.77
2023-05-12T11:32:25.402Z,22.30
2023-05-12T11:34:52.868Z,23.09
2023-05-12T11:37:21.923Z,22.99
2023-05-12T11:39:49.489Z,22.60
2023-05-12T11:42:19.789Z,22.43
2023-05-12T11:44:48.781Z,22.61
2023-05-12T11:47:17.580Z,21.90
2023-05-12T11:49:49.386Z,21.95
2023-05-12T11:52:17.858Z,22.32
2023-05-12T11:54:51.014Z,22.16
2023-05-12T11:57:26.931Z,22.85
2023-05-12T11:59:59.080Z,23.19
2023-05-12T12:02:27.369Z,23.47
2023-05-12T12:04:55.304Z,22.59
2023-05-12T12:07:30.150Z,21.92
2023-05-12T12:09:59.458Z,21.98
2023-05-12T12:12:26.860Z,21.92
2023-05-12T12:14:56.615Z,21.77
2023-05-12T12:17:30.846Z,22.19
2023-05-12T12:19:58.448Z,22.06
2023-05-12T12:22:25.988Z,22.22
2023-05-12T12:24:53.651Z,21.87
2023-05-12T12:27:22.577Z,22.02
2023-05-12T12:29:50.790Z,22.32
2023-05-12T12:32:18.443Z,23.24
2023-05-12T12:34:46.353Z,23.19
2023-05-12T12:37:14.046Z,22.37
2023-05-12T12:39:41.428Z,22.46
2023-05-12T12:42:09.110Z,22.88
2023-05-12T12:44:37.974Z,22.53
2023-05-12T12:47:06.431Z,22.46
2023-05-12T12:49:33.932Z,23.19
2023-05-12T12:52:02.160Z,23.28
2023-05-12T12:54:29.676Z,23.45
2023-05-12T12:56:57.175Z,23.28
2023-05-12T12:59:24.743Z,23.48
2023-05-12T13:01:53.645Z,23.39
2023-05-12T13:04:23.005Z,23.03
2023-05-12T13:06:50.606Z,22.72
2023-05-12T13:09:20.008Z,22.74
2023-05-12T13:11:48.820Z,23.03
2023-05-12T13:14:17.032Z,23.88
2023-05-12T13:16:44.457Z,23.41
2023-05-12T13:19:13.695Z,22.81
2023-05-12T13:21:41.905Z,23.04
2023-05-12T13:24:09.558Z,23.09
2023-05-12T13:26:37.112Z,22.62
2023-05-12T13:29:05.121Z,22.59
2023-05-12T13:31:32.934Z,22.60
2023-05-12T13:34:00.470Z,22.55
2023-05-12T13:36:29.801Z,22.70
2023-05-12T13:38:57.214Z,22.75
2023-05-12T13:41:24.849Z,22.49
2023-05-12T13:43:52.373Z,23.42
2023-05-12T13:46:19.986Z,23.48
2023-05-12T13:48:48.012Z,23.11
2023-05-12T13:51:15.831Z,22.84
2023-05-12T13:53:44.608Z,22.83
2023-05-12T13:56:12.063Z,23.19
2023-05-12T13:58:39.535Z,23.01
2023-05-12T14:01:08.742Z,22.91
2023-05-12T14:03:36.967Z,23.01
2023-05-12T14:06:04.602Z,23.02
2023-05-12T14:08:32.027Z,22.61
2023-05-12T14:11:01.162Z,23.37
2023-05-12T14:13:28.542Z,23.05
2023-05-12T14:15:56.519Z,22.76
2023-05-12T14:18:25.112Z,22.42
2023-05-12T14:20:53.026Z,22.64
2023-05-12T14:23:20.544Z,23.07
2023-05-12T14:25:48.002Z,23.24
2023-05-12T14:28:16.894Z,23.07
2023-05-12T14:30:45.235Z,22.66
2023-05-12T14:33:13.094Z,22.63
2023-05-12T14:35:40.585Z,22.50
2023-05-12T14:38:08.021Z,22.42
2023-05-12T14:40:35.464Z,22.84
2023-05-12T14:43:03.367Z,22.51
2023-05-12T14:45:32.466Z,22.67
2023-05-12T14:48:00.116Z,23.26
2023-05-12T14:50:28.516Z,22.68
2023-05-12T14:52:56.023Z,22.45
2023-05-12T14:55:24.494Z,22.36
2023-05-12T14:57:51.980Z,22.53
2023-05-12T15:00:21.212Z,22.80
2023-05-12T15:02:50.114Z,22.84
2023-05-12T15:05:17.819Z,22.39
2023-05-12T15:07:45.400Z,22.54
2023-05-12T15:10:12.986Z,22.70
2023-05-12T15:12:40.439Z,22.66
2023-05-12T15:15:11.403Z,22.39
2023-05-12T15:17:39.251Z,22.55
2023-05-12T15:20:10.898Z,22.28
2023-05-12T15:22:38.348Z,22.13
2023-05-12T15:25:06.725Z,22.00
2023-05-12T15:27:34.181Z,22.02
2023-05-12T15:30:01.648Z,22.27
2023-05-12T15:32:29.122Z,22.42
2023-05-12T15:34:57.162Z,22.40
2023-05-12T15:37:26.003Z,22.20
2023-05-12T15:39:53.470Z,22.54
2023-05-12T15:42:26.166Z,22.38
2023-05-12T15:44:59.913Z,22.52
2023-05-12T15:47:27.653Z,22.63
2023-05-12T15:49:55.109Z,22.58
2023-05-12T15:52:22.944Z,22.54
2023-05-12T15:54:51.771Z,22.23
2023-05-12T15:57:19.179Z,22.12
2023-05-12T15:59:47.548Z,22.42
2023-05-12T16:02:15.171Z,22.38
2023-05-12T16:04:42.753Z,22.18
2023-05-12T16:07:10.228Z,22.46
2023-05-12T16:09:37.658Z,22.40
2023-05-12T16:12:09.336Z,22.87
2023-05-12T16:14:36.859Z,23.16
2023-05-12T16:17:04.354Z,23.07
2023-05-12T16:19:31.815Z,22.41
2023-05-12T16:22:00.252Z,22.26
2023-05-12T16:24:28.573Z,22.28
2023-05-12T16:26:56.243Z,22.10
2023-05-12T16:29:25.255Z,22.16
2023-05-12T16:31:53.622Z,22.18
2023-05-12T16:34:21.215Z,22.04
2023-05-12T16:36:48.814Z,22.11
2023-05-12T16:39:17.926Z,22.16
2023-05-12T16:41:45.710Z,22.42
2023-05-12T16:44:13.181Z,22.44
2023-05-12T16:46:43.293Z,22.85
2023-05-12T16:49:10.871Z,22.44
2023-05-12T16:51:38.858Z,22.46
2023-05-12T16:54:06.335Z,22.74
2023-05-12T16:56:33.798Z,22.75
2023-05-12T16:59:01.327Z,22.64
2023-05-12T17:01:30.242Z,22.20
2023-05-12T17:03:59.416Z,22.35
2023-05-12T17:06:27.139Z,22.11
2023-05-12T17:08:54.545Z,22.25
2023-05-12T17:11:22.292Z,22.44
2023-05-12T17:13:49.727Z,22.21
2023-05-12T17:16:17.216Z,22.31
2023-05-12T17:21:16.957Z,21.97
2023-05-12T17:23:44.417Z,22.03
2023-05-12T17:26:11.832Z,21.79
2023-05-12T17:28:39.477Z,21.76
2023-05-12T17:31:07.444Z,21.68
2023-05-12T17:33:35.102Z,21.65
2023-05-12T17:36:11.729Z,21.93
2023-05-12T17:38:42.012Z,22.50
2023-05-12T17:41:09.877Z,21.99
2023-05-12T17:43:37.322Z,21.82
2023-05-12T17:46:05.351Z,21.90
2023-05-12T17:48:33.388Z,21.90
2023-05-12T17:51:01.276Z,21.66
2023-05-12T17:53:28.713Z,21.83
2023-05-12T17:55:57.506Z,21.65
2023-05-12T17:58:24.926Z,21.68
2023-05-12T18:00:52.925Z,22.11
2023-05-12T18:03:23.706Z,21.66
2023-05-12T18:05:51.899Z,21.68
2023-05-12T18:08:19.768Z,21.63
2023-05-12T18:10:47.647Z,21.46
2023-05-12T18:13:16.424Z,21.28
2023-05-12T18:15:44.230Z,21.50
2023-05-12T18:18:12.290Z,21.24
2023-05-12T18:20:39.859Z,21.36
2023-05-12T18:23:07.293Z,21.32
2023-05-12T18:25:34.849Z,21.17
2023-05-12T18:28:02.240Z,21.11
2023-05-12T18:30:31.087Z,21.43
2023-05-12T18:32:58.572Z,21.17
2023-05-12T18:35:27.051Z,21.12
2023-05-12T18:37:54.582Z,20.97
2023-05-12T18:40:22.108Z,20.73
2023-05-12T18:42:50.650Z,21.19
2023-05-12T18:45:19.444Z,20.98
2023-05-12T18:47:48.508Z,21.29
2023-05-12T18:50:16.148Z,21.50
2023-05-12T18:52:43.830Z,20.96
2023-05-12T18:55:11.325Z,20.86
2023-05-12T18:57:38.798Z,20.77
2023-05-12T19:00:07.758Z,20.75
2023-05-12T19:02:35.530Z,21.29
2023-05-12T19:05:04.830Z,21.07
2023-05-12T19:07:32.388Z,20.97
2023-05-12T19:09:59.797Z,21.17
2023-05-12T19:12:27.708Z,21.64
2023-05-12T19:14:55.494Z,20.57
2023-05-12T19:17:22.939Z,20.81
2023-05-12T19:19:50.679Z,20.81
2023-05-12T19:22:19.479Z,21.36
2023-05-12T19:24:47.368Z,20.93
2023-05-12T19:27:15.160Z,20.63
2023-05-12T19:29:42.930Z,21.04
2023-05-12T19:32:10.895Z,20.68
2023-05-12T19:34:39.862Z,20.57
2023-05-12T19:37:07.339Z,20.60
2023-05-12T19:39:36.038Z,20.72
2023-05-12T19:42:03.470Z,20.63
2023-05-12T19:44:30.902Z,20.25
2023-05-12T19:47:04.264Z,20.12
2023-05-12T19:49:33.579Z,20.53
2023-05-12T19:52:01.119Z,20.76
2023-05-12T19:54:28.677Z,20.36
2023-05-12T19:56:57.404Z,20.38
2023-05-12T19:59:26.618Z,20.28
2023-05-12T20:01:56.488Z,20.20
2023-05-12T20:04:25.401Z,20.61
2023-05-12T20:06:54.415Z,20.17
2023-05-12T20:09:23.243Z,19.89
2023-05-12T20:11:50.740Z,20.03
2023-05-12T20:14:19.581Z,20.22
2023-05-12T20:16:47.192Z,20.10
2023-05-12T20:19:14.788Z,20.08
2023-05-12T20:21:42.430Z,19.66
2023-05-12T20:24:10.095Z,19.69
2023-05-12T20:26:37.918Z,19.66
2023-05-12T20:29:05.414Z,19.84
2023-05-12T20:31:34.435Z,19.68
2023-05-12T20:34:02.158Z,19.91
2023-05-12T20:36:29.877Z,19.22
2023-05-12T20:38:58.209Z,19.57
2023-05-12T20:41:25.759Z,19.35
2023-05-12T20:43:53.271Z,19.59
2023-05-12T20:46:21.009Z,19.83
2023-05-12T20:48:49.853Z,19.63
2023-05-12T20:51:17.266Z,19.88
2023-05-12T20:53:44.971Z,19.56
2023-05-12T20:56:13.144Z,19.26
2023-05-12T20:58:40.758Z,19.29
2023-05-12T21:01:08.369Z,19.33
2023-05-12T21:03:35.900Z,19.40
2023-05-12T21:06:06.208Z,19.17
2023-05-12T21:08:33.638Z,19.51
2023-05-12T21:11:01.189Z,19.33
2023-05-12T21:13:28.598Z,18.82
2023-05-12T21:15:56.402Z,19.21
2023-05-12T21:18:24.070Z,19.76
2023-05-12T21:20:51.536Z,19.42
2023-05-12T21:23:20.237Z,19.39
2023-05-12T21:25:48.948Z,18.91
2023-05-12T21:28:16.408Z,18.88
2023-05-12T21:30:43.841Z,18.64
2023-05-12T21:33:11.336Z,18.34
2023-05-12T21:35:38.808Z,18.40
2023-05-12T21:38:08.556Z,18.39
2023-05-12T21:40:37.446Z,18.27
2023-05-12T21:43:05.264Z,18.29
2023-05-12T21:45:32.868Z,18.56
2023-05-12T21:48:00.444Z,18.69
2023-05-12T21:50:27.989Z,18.47
2023-05-12T21:52:55.425Z,18.78
2023-05-12T21:55:22.843Z,18.44
2023-05-12T21:57:51.645Z,18.25
2023-05-12T22:00:20.033Z,18.52
2023-05-12T22:02:48.517Z,18.32
2023-05-12T22:05:16.081Z,18.58
2023-05-12T22:07:43.940Z,18.18
2023-05-12T22:10:11.344Z,18.35
2023-05-12T22:12:38.814Z,18.24
2023-05-12T22:15:08.856Z,18.41
2023-05-12T22:17:36.326Z,18.58
2023-05-12T22:20:04.119Z,18.34
2023-05-12T22:22:31.540Z,18.01
2023-05-12T22:24:59.030Z,18.12
2023-05-12T22:27:26.437Z,17.84
2023-05-12T22:29:55.035Z,18.17
2023-05-12T22:32:23.967Z,17.84
2023-05-12T22:34:53.328Z,17.85
2023-05-12T22:37:20.916Z,17.83
2023-05-12T22:39:48.344Z,17.84
2023-05-12T22:42:15.769Z,17.94
2023-05-12T22:44:43.251Z,17.85
2023-05-12T22:47:10.806Z,17.61
2023-05-12T22:49:39.675Z,17.85
2023-05-12T22:52:07.497Z,18.06
2023-05-12T22:54:34.910Z,18.01
2023-05-12T22:57:02.287Z,18.18
2023-05-12T22:59:29.703Z,18.34
2023-05-12T23:01:57.618Z,17.81
2023-05-12T23:04:25.118Z,18.36
2023-05-12T23:06:53.881Z,17.89
2023-05-12T23:09:21.556Z,17.91
2023-05-12T23:11:48.957Z,18.04
2023-05-12T23:14:16.360Z,18.40
2023-05-12T23:16:43.876Z,18.48
2023-05-12T23:19:11.567Z,18.17
2023-05-12T23:21:39.004Z,18.11
2023-05-12T23:24:08.806Z,17.93
2023-05-12T23:26:36.258Z,18.29
2023-05-12T23:29:04.068Z,18.43
2023-05-12T23:31:31.484Z,18.06
2023-05-12T23:33:58.938Z,17.90
2023-05-12T23:36:26.368Z,18.02
2023-05-12T23:38:54.522Z,18.39
2023-05-12T23:41:23.308Z,18.50
2023-05-12T23:43:50.727Z,18.02
2023-05-12T23:46:18.207Z,17.72
2023-05-12T23:48:45.595Z,18.00
2023-05-12T23:51:12.995Z,18.51
2023-05-12T23:53:40.387Z,18.03
2023-05-12T23:56:08.557Z,18.04
2023-05-12T23:58:37.267Z,18.44
